Time;durP1;ratioP1;P1;durP2;ratioP2;P2;SDS_P1;SDS_P2;PMS_P1;PMS_P2;Temp;Humidity;BMP_temperature;BMP_pressure;BME280_temperature;BME280_humidity;BME280_pressure;Samples;Min_cycle;Max_cycle;Signal;HPM_P1;HPM_P2
2022/10/07 00:01:38;;;;;;;3.70;2.83;;;;;;;10.54;88.73;63084.47;4962282;28;20259;-74
2022/10/07 00:04:05;;;;;;;2.47;2.20;;;;;;;10.49;90.37;63077.78;4965821;29;20404;-75
2022/10/07 00:06:33;;;;;;;3.55;2.50;;;;;;;10.40;90.87;63068.47;4967444;29;20387;-74
2022/10/07 00:09:01;;;;;;;4.45;2.20;;;;;;;10.50;90.63;63080.84;4966249;28;20239;-75
2022/10/07 00:11:28;;;;;;;3.13;1.77;;;;;;;10.39;91.59;63069.44;4966605;29;20236;-75
2022/10/07 00:13:59;;;;;;;1.73;1.63;;;;;;;10.34;90.97;63064.28;4969398;29;20419;-75
2022/10/07 00:16:27;;;;;;;2.28;1.23;;;;;;;10.32;91.01;63062.72;4969696;29;20188;-75
2022/10/07 00:18:56;;;;;;;1.52;1.50;;;;;;;10.27;90.73;63065.19;4967726;29;20255;-75
2022/10/07 00:21:25;;;;;;;1.58;1.58;;;;;;;10.23;90.05;63055.97;4965506;29;20386;-75
2022/10/07 00:23:52;;;;;;;1.38;1.27;;;;;;;10.22;90.71;63051.88;4968542;29;20268;-75
2022/10/07 00:26:21;;;;;;;4.53;1.67;;;;;;;10.24;92.36;63056.47;4969811;29;20313;-74
2022/10/07 00:28:48;;;;;;;2.83;1.88;;;;;;;10.24;92.43;63059.56;4970546;29;20224;-75
2022/10/07 00:31:19;;;;;;;1.65;1.55;;;;;;;10.23;91.89;63055.97;4970499;29;20240;-76
2022/10/07 00:33:47;;;;;;;3.08;1.60;;;;;;;10.27;91.02;63059.59;4970151;29;20596;-75
2022/10/07 00:36:16;;;;;;;3.30;1.38;;;;;;;10.20;90.60;63052.88;4969739;29;20456;-75
2022/10/07 00:38:43;;;;;;;1.55;1.45;;;;;;;10.13;91.18;63048.16;4967603;29;20251;-74
2022/10/07 00:41:18;;;;;;;2.33;1.00;;;;;;;10.18;90.92;63050.78;4968705;29;20208;-75
2022/10/07 00:43:45;;;;;;;1.25;1.23;;;;;;;10.19;90.62;63051.31;4968819;28;20225;-75
2022/10/07 00:46:21;;;;;;;1.90;1.23;;;;;;;10.11;89.76;63040.50;4966297;29;20505;-75
2022/10/07 00:48:49;;;;;;;1.15;1.15;;;;;;;10.08;90.34;63043.00;4963713;29;20319;-75
2022/10/07 00:51:16;;;;;;;1.17;1.17;;;;;;;10.10;90.83;63042.00;4971957;29;20224;-75
2022/10/07 00:53:47;;;;;;;1.48;1.38;;;;;;;10.09;91.10;63040.97;4969435;29;20259;-74
2022/10/07 00:56:16;;;;;;;1.23;1.20;;;;;;;10.06;91.97;63035.31;4964014;29;20244;-75
2022/10/07 00:58:46;;;;;;;1.55;1.45;;;;;;;10.07;93.38;63039.41;4962148;29;20305;-74
2022/10/07 01:01:13;;;;;;;1.67;1.38;;;;;;;10.07;93.90;63039.41;4968606;29;20201;-75
2022/10/07 01:03:42;;;;;;;1.55;1.45;;;;;;;10.03;93.13;63029.66;4970119;29;20526;-75
2022/10/07 01:06:09;;;;;;;1.00;1.00;;;;;;;9.96;93.33;63025.47;4968527;29;20205;-76
2022/10/07 01:08:37;;;;;;;1.30;1.30;;;;;;;10.08;94.53;63037.91;4968563;28;20237;-75
2022/10/07 01:11:15;;;;;;;2.35;1.42;;;;;;;10.05;93.41;63034.25;4968028;29;20263;-76
2022/10/07 01:13:53;;;;;;;2.17;1.33;;;;;;;10.00;93.33;63026.53;4966122;28;20236;-75
2022/10/07 01:16:29;;;;;;;1.38;1.38;;;;;;;10.01;93.77;63030.63;4969089;29;20193;-76
2022/10/07 01:19:05;;;;;;;1.10;1.10;;;;;;;10.02;93.11;63031.69;4969025;28;20259;-74
2022/10/07 01:21:39;;;;;;;1.80;1.70;;;;;;;10.02;93.23;63031.69;4956722;29;20272;-76
2022/10/07 01:24:16;;;;;;;1.23;1.23;;;;;;;10.04;94.45;63038.31;4964175;29;20251;-75
2022/10/07 01:26:55;;;;;;;2.25;1.80;;;;;;;10.01;94.14;63033.19;4965792;29;20395;-75
2022/10/07 01:29:27;;;;;;;1.20;1.20;;;;;;;10.04;93.53;63040.88;4968038;29;20219;-75
2022/10/07 01:32:03;;;;;;;1.05;1.05;;;;;;;10.07;93.83;63036.34;4969759;28;20232;-75
2022/10/07 01:34:32;;;;;;;3.22;1.35;;;;;;;10.02;94.06;63031.69;4970163;29;20207;-75
2022/10/07 01:37:01;;;;;;;1.30;1.13;;;;;;;9.93;94.50;63027.47;4963989;29;20236;-74
2022/10/07 01:39:32;;;;;;;2.20;1.05;;;;;;;9.89;95.48;63015.69;4967554;29;20227;-75
2022/10/07 01:42:00;;;;;;;1.20;1.20;;;;;;;9.92;95.24;63023.38;4966583;29;20462;-76
2022/10/07 01:44:29;;;;;;;1.20;1.10;;;;;;;9.82;95.55;63016.06;4968298;29;20216;-76
2022/10/07 01:46:56;;;;;;;1.23;1.23;;;;;;;9.77;95.71;63008.34;4965963;29;20203;-76
2022/10/07 01:49:23;;;;;;;2.78;1.40;;;;;;;9.87;95.51;63018.19;4968296;29;20251;-74
2022/10/07 01:52:03;;;;;;;1.42;1.33;;;;;;;9.90;95.97;63018.75;4967504;28;20227;-75
2022/10/07 01:54:42;;;;;;;2.60;1.65;;;;;;;9.90;96.31;63021.81;4968250;29;20413;-75
2022/10/07 01:57:26;;;;;;;1.33;1.20;;;;;;;9.92;96.94;63018.28;4966547;29;20278;-75
2022/10/07 02:00:06;;;;;;;1.30;1.20;;;;;;;9.98;96.98;63027.00;4962070;29;20505;-75
2022/10/07 02:02:57;;;;;;;1.20;1.20;;;;;;;9.93;97.41;63022.38;4968777;28;20224;-74
2022/10/07 02:05:36;;;;;;;1.20;1.10;;;;;;;10.02;97.78;63031.16;4944766;29;20240;-75
2022/10/07 02:08:21;;;;;;;1.13;1.13;;;;;;;10.04;98.00;63033.75;4967566;29;20446;-74
2022/10/07 02:11:04;;;;;;;1.30;1.20;;;;;;;10.21;96.49;63050.84;4967674;29;20188;-76
2022/10/07 02:13:37;;;;;;;1.70;1.50;;;;;;;10.09;97.68;63036.41;4948350;29;20237;-75
2022/10/07 02:16:12;;;;;;;1.17;1.17;;;;;;;10.12;97.82;63042.03;4950126;29;20253;-75
2022/10/07 02:18:46;;;;;;;1.10;1.00;;;;;;;10.22;97.44;63046.78;4963596;28;20235;-75
2022/10/07 02:21:14;;;;;;;3.60;1.58;;;;;;;10.24;97.50;63053.94;4967802;29;20260;-74
2022/10/07 02:23:44;;;;;;;1.40;1.30;;;;;;;10.25;97.06;63058.03;4968265;29;20232;-74
2022/10/07 02:26:14;;;;;;;1.48;1.38;;;;;;;10.23;97.38;63050.38;4964714;29;20257;-74
2022/10/07 02:28:45;;;;;;;2.50;1.30;;;;;;;10.25;97.00;63055.50;4967075;29;20454;-74
2022/10/07 02:31:16;;;;;;;1.55;1.45;;;;;;;10.33;96.52;63060.72;4969875;29;20197;-73
2022/10/07 02:33:45;;;;;;;3.83;1.85;;;;;;;10.32;96.71;63062.22;4964869;28;20237;-75
2022/10/07 02:36:21;;;;;;;1.65;1.55;;;;;;;10.34;97.22;63064.28;4964655;29;20220;-75
2022/10/07 02:38:48;;;;;;;3.83;1.50;;;;;;;10.38;97.10;63076.06;4969066;28;20227;-75
2022/10/07 02:41:30;;;;;;;1.35;1.35;;;;;;;10.35;97.30;63065.84;4966198;28;20212;-75
2022/10/07 02:44:04;;;;;;;1.40;1.40;;;;;;;10.29;97.75;63062.19;4957585;29;20267;-75
2022/10/07 02:46:37;;;;;;;1.70;1.60;;;;;;;10.30;98.31;63060.66;4967515;29;20204;-75
2022/10/07 02:49:08;;;;;;;1.90;1.77;;;;;;;10.27;98.94;63057.03;4965561;29;20209;-75
2022/10/07 02:51:40;;;;;;;1.63;1.52;;;;;;;10.24;98.91;63054.47;4965875;29;20201;-74
2022/10/07 02:54:07;;;;;;;1.80;1.70;;;;;;;10.23;98.49;63055.97;4961623;29;20233;-74
2022/10/07 02:56:37;;;;;;;1.83;1.70;;;;;;;10.27;97.88;63057.56;4948756;29;20219;-74
2022/10/07 02:59:09;;;;;;;2.65;1.90;;;;;;;10.34;97.40;63064.81;4950610;29;20209;-74
2022/10/07 03:01:41;;;;;;;1.85;1.80;;;;;;;10.47;97.21;63082.84;4948419;29;20229;-75
2022/10/07 03:04:08;;;;;;;1.77;1.67;;;;;;;10.46;96.49;63079.78;4954637;29;20213;-75
2022/10/07 03:06:35;;;;;;;1.83;1.73;;;;;;;10.47;96.49;63080.28;4965573;29;20201;-74
2022/10/07 03:09:03;;;;;;;2.17;2.08;;;;;;;10.46;97.09;63076.69;4966207;29;20204;-75
2022/10/07 03:11:30;;;;;;;1.85;1.75;;;;;;;10.49;97.07;63080.31;4958826;29;20435;-75
2022/10/07 03:13:57;;;;;;;2.55;2.35;;;;;;;10.58;96.15;63088.63;4962657;29;20236;-74
2022/10/07 03:16:25;;;;;;;1.77;1.67;;;;;;;10.61;96.72;63094.78;4966514;29;20240;-75
2022/10/07 03:18:53;;;;;;;2.35;1.88;;;;;;;10.66;96.18;63099.97;4965063;29;20267;-75
2022/10/07 03:21:19;;;;;;;1.70;1.65;;;;;;;10.61;95.93;63092.25;4963959;29;20470;-74
2022/10/07 03:23:51;;;;;;;2.55;1.98;;;;;;;10.67;95.02;63097.91;4965242;28;20220;-74
2022/10/07 03:26:18;;;;;;;1.95;1.85;;;;;;;10.67;95.16;63098.44;4966159;29;20387;-74
2022/10/07 03:28:46;;;;;;;2.13;2.03;;;;;;;10.59;94.88;63089.66;4970639;29;20304;-76
2022/10/07 03:31:14;;;;;;;2.25;2.10;;;;;;;10.72;93.75;63106.16;4963811;29;20247;-74
2022/10/07 03:33:42;;;;;;;3.10;2.55;;;;;;;10.69;94.29;63100.00;4964686;28;20236;-74
2022/10/07 03:36:09;;;;;;;1.70;1.60;;;;;;;10.67;93.63;63098.44;4966022;29;20395;-74
2022/10/07 03:38:36;;;;;;;2.05;1.85;;;;;;;10.69;94.61;63100.00;4963614;29;20238;-74
2022/10/07 03:41:03;;;;;;;3.10;1.80;;;;;;;10.72;93.76;63101.06;4964843;29;20217;-74
2022/10/07 03:43:30;;;;;;;4.90;2.10;;;;;;;10.75;94.41;63103.66;4968777;28;20224;-74
2022/10/07 03:46:01;;;;;;;3.65;2.50;;;;;;;10.68;94.98;63102.03;4964241;29;20209;-74
2022/10/07 03:48:29;;;;;;;2.20;2.10;;;;;;;10.73;94.68;63104.13;4964444;29;20232;-74
2022/10/07 03:50:57;;;;;;;2.17;2.08;;;;;;;10.67;94.38;63101.00;4964488;29;20223;-75
2022/10/07 03:53:25;;;;;;;2.47;2.17;;;;;;;10.68;94.26;63101.50;4965060;29;20244;-75
2022/10/07 03:55:52;;;;;;;2.58;2.45;;;;;;;10.61;95.06;63094.78;4964374;29;20219;-75
2022/10/07 03:58:19;;;;;;;4.53;2.92;;;;;;;10.60;95.26;63091.19;4966288;29;20224;-76
2022/10/07 04:00:47;;;;;;;2.17;2.08;;;;;;;10.57;96.26;63087.56;4963747;29;20204;-75
2022/10/07 04:03:15;;;;;;;2.83;2.63;;;;;;;10.59;97.69;63092.72;4964743;29;20243;-75
2022/10/07 04:05:42;;;;;;;4.55;2.53;;;;;;;10.62;95.14;63095.28;4964209;29;20374;-75
2022/10/07 04:08:16;;;;;;;2.70;2.50;;;;;;;10.61;96.05;63087.16;4966569;28;20433;-75
2022/10/07 04:10:43;;;;;;;2.53;2.00;;;;;;;10.59;95.47;63090.16;4967243;29;20203;-75
2022/10/07 04:13:10;;;;;;;2.65;1.98;;;;;;;10.57;95.34;63090.13;4967670;28;20287;-77
2022/10/07 04:15:37;;;;;;;3.67;2.58;;;;;;;10.49;96.20;63080.31;4964505;29;20268;-75
2022/10/07 04:18:04;;;;;;;2.60;2.38;;;;;;;10.44;95.60;63072.09;4965300;28;20457;-76
2022/10/07 04:20:31;;;;;;;6.03;2.33;;;;;;;10.46;95.22;63074.69;4966346;29;20406;-75
2022/10/07 04:22:58;;;;;;;4.60;2.33;;;;;;;10.52;93.97;63082.91;4964690;28;20227;-75
2022/10/07 04:25:37;;;;;;;2.25;2.05;;;;;;;10.54;93.31;63089.56;4967587;29;20212;-76
2022/10/07 04:28:06;;;;;;;3.05;2.50;;;;;;;10.46;94.01;63079.78;4964367;28;20447;-75
2022/10/07 04:30:38;;;;;;;2.17;2.05;;;;;;;10.60;92.65;63093.22;4963633;29;20197;-75
2022/10/07 04:33:06;;;;;;;2.20;2.10;;;;;;;10.53;92.64;63081.41;4962527;29;20252;-76
2022/10/07 04:35:36;;;;;;;2.00;1.92;;;;;;;10.61;91.95;63087.16;4966277;29;20201;-76
2022/10/07 04:38:05;;;;;;;1.90;1.80;;;;;;;10.52;92.60;63080.38;4966637;29;20208;-74
2022/10/07 04:40:33;;;;;;;1.75;1.75;;;;;;;10.47;92.58;63080.78;4966137;28;20252;-76
2022/10/07 04:45:44;;;;;;;3.17;1.90;;;;;;;10.63;90.40;63093.78;4963405;29;20560;-75
2022/10/07 04:48:10;;;;;;;3.58;2.10;;;;;;;10.64;90.03;63099.91;4954580;29;20252;-75
2022/10/07 04:50:38;;;;;;;2.15;2.05;;;;;;;10.68;89.98;63099.50;4958033;29;20263;-74
2022/10/07 04:53:06;;;;;;;4.45;2.35;;;;;;;10.68;88.80;63102.03;4969148;28;20287;-76
2022/10/07 04:55:38;;;;;;;1.75;1.65;;;;;;;10.79;88.02;63115.97;4965238;28;20549;-76
2022/10/07 04:58:06;;;;;;;2.08;1.95;;;;;;;10.86;87.45;63122.69;4963568;29;20359;-76
2022/10/07 05:00:33;;;;;;;1.90;1.80;;;;;;;10.97;86.91;63126.97;4964367;29;20279;-77
2022/10/07 05:03:00;;;;;;;1.42;1.40;;;;;;;11.08;84.98;63142.94;4966768;28;20259;-76
2022/10/07 05:05:27;;;;;;;2.00;1.90;;;;;;;11.19;84.63;63151.75;4967463;29;20212;-75
2022/10/07 05:07:54;;;;;;;1.60;1.60;;;;;;;11.23;84.52;63153.88;4969269;28;20285;-75
2022/10/07 05:10:21;;;;;;;1.52;1.42;;;;;;;11.34;83.93;63167.28;4968716;29;20201;-76
2022/10/07 05:12:50;;;;;;;3.85;1.25;;;;;;;11.36;82.73;63169.88;4968235;28;20239;-76
2022/10/07 05:15:17;;;;;;;4.93;3.60;;;;;;;11.23;88.19;63155.91;4965345;29;20197;-75
2022/10/07 05:17:44;;;;;;;7.82;4.10;;;;;;;11.26;90.68;63156.47;4963232;28;20224;-75
2022/10/07 05:20:11;;;;;;;9.82;4.63;;;;;;;11.19;93.75;63151.75;4966697;29;20420;-75
2022/10/07 05:22:38;;;;;;;5.97;4.93;;;;;;;11.09;95.72;63146.50;4970025;28;20227;-75
2022/10/07 05:25:06;;;;;;;14.13;5.65;;;;;;;11.01;97.00;63133.13;4955399;28;20251;-77
2022/10/07 05:27:33;;;;;;;12.10;6.10;;;;;;;10.98;97.93;63132.56;4950420;29;20221;-75
2022/10/07 05:30:01;;;;;;;11.02;5.75;;;;;;;11.05;97.90;63132.16;4950289;29;20197;-75
2022/10/07 05:32:28;;;;;;;8.95;4.97;;;;;;;11.07;97.92;63139.84;4965557;28;20495;-76
2022/10/07 05:34:55;;;;;;;11.02;5.72;;;;;;;10.97;100.00;63134.06;4957170;29;20279;-76
2022/10/07 05:37:22;;;;;;;11.63;5.50;;;;;;;10.98;100.00;63133.09;4968245;28;20221;-76
2022/10/07 05:39:49;;;;;;;16.80;5.65;;;;;;;11.04;98.50;63136.22;4960861;29;20204;-75
2022/10/07 05:42:16;;;;;;;11.93;5.13;;;;;;;10.91;100.00;63125.84;4963884;28;20267;-73
2022/10/07 05:44:42;;;;;;;9.57;5.20;;;;;;;10.93;100.00;63127.38;4968217;29;20205;-75
2022/10/07 05:47:11;;;;;;;13.55;5.45;;;;;;;11.07;100.00;63147.50;4964809;29;20221;-76
2022/10/07 05:49:38;;;;;;;7.07;5.05;;;;;;;11.10;100.00;63142.44;4967138;29;20213;-74
2022/10/07 05:52:05;;;;;;;5.28;4.53;;;;;;;11.12;100.00;63147.59;4967191;29;20208;-74
2022/10/07 05:54:32;;;;;;;6.05;4.82;;;;;;;11.17;100.00;63147.66;4967338;29;20275;-77
2022/10/07 05:57:00;;;;;;;8.00;5.10;;;;;;;11.29;100.00;63165.19;4966305;29;20420;-74
2022/10/07 05:59:27;;;;;;;6.03;4.40;;;;;;;11.39;100.00;63178.09;4967649;29;20201;-76
2022/10/07 06:01:59;;;;;;;4.68;3.70;;;;;;;11.55;99.67;63191.59;4963891;29;20386;-75
2022/10/07 06:04:27;;;;;;;7.35;4.50;;;;;;;11.70;99.28;63204.59;4965487;29;20220;-76
2022/10/07 06:06:54;;;;;;;5.18;3.88;;;;;;;11.74;100.00;63213.34;4971840;28;20272;-75
2022/10/07 06:14:50;;;;;;;4.43;4.05;;;;;;;12.14;99.29;63249.69;4968445;29;20255;-76
2022/10/07 06:17:17;;;;;;;10.63;4.88;;;;;;;12.16;100.00;63257.38;4967927;28;20240;-76
2022/10/07 06:19:45;;;;;;;7.50;4.47;;;;;;;12.33;99.31;63269.38;4956641;29;20217;-75
2022/10/07 06:22:12;;;;;;;4.70;3.28;;;;;;;12.42;94.25;63281.78;4967077;28;20600;-75
2022/10/07 06:24:39;;;;;;;4.47;3.97;;;;;;;12.58;93.92;63298.38;4965939;29;20204;-76
2022/10/07 06:27:06;;;;;;;7.65;4.75;;;;;;;12.76;96.83;63322.16;4962547;28;20221;-76
2022/10/07 06:29:33;;;;;;;14.38;5.70;;;;;;;12.88;95.85;63326.41;4967349;29;20236;-75
2022/10/07 06:32:00;;;;;;;10.73;6.05;;;;;;;12.97;94.78;63332.66;4966129;29;20284;-76
2022/10/07 06:34:27;;;;;;;10.95;4.63;;;;;;;12.97;95.68;63333.19;4968616;29;20236;-76
2022/10/07 06:36:55;;;;;;;6.60;4.72;;;;;;;13.06;95.07;63344.59;4961640;29;20217;-75
2022/10/07 06:39:22;;;;;;;9.98;5.40;;;;;;;13.13;92.77;63352.34;4966551;29;20205;-76
2022/10/07 06:41:51;;;;;;;5.78;4.28;;;;;;;13.23;88.41;63367.84;4965947;29;20212;-77
2022/10/07 06:44:18;;;;;;;7.05;5.18;;;;;;;13.31;90.62;63370.50;4962302;29;20201;-76
2022/10/07 06:46:45;;;;;;;11.98;5.85;;;;;;;13.33;92.19;63375.66;4964858;28;20628;-75
2022/10/07 06:49:12;;;;;;;9.77;6.80;;;;;;;13.31;93.60;63376.16;4968987;29;20256;-76
2022/10/07 06:51:39;;;;;;;9.48;5.80;;;;;;;13.30;94.94;63366.91;4966489;28;20209;-76
2022/10/07 06:54:07;;;;;;;13.18;5.95;;;;;;;13.27;95.73;63366.88;4962246;29;20236;-75
2022/10/07 06:56:34;;;;;;;6.97;5.18;;;;;;;13.34;95.08;63373.63;4964495;29;20216;-76
2022/10/07 06:59:02;;;;;;;8.40;5.45;;;;;;;13.48;93.21;63388.16;4939355;29;20238;-76
2022/10/07 07:01:29;;;;;;;7.68;6.20;;;;;;;13.56;90.66;63391.34;4962022;29;20222;-76
2022/10/07 07:03:56;;;;;;;18.27;6.32;;;;;;;13.47;92.85;63387.13;4953108;28;20221;-76
2022/10/07 07:06:23;;;;;;;14.20;6.50;;;;;;;13.54;92.02;63394.38;4960833;29;20208;-75
2022/10/07 07:08:50;;;;;;;10.30;6.88;;;;;;;13.56;91.66;63399.00;4963514;28;20264;-75
2022/10/07 07:11:39;;;;;;;12.35;5.88;;;;;;;13.79;91.41;63420.31;4962254;29;20426;-77
2022/10/07 07:14:07;;;;;;;14.63;6.22;;;;;;;13.77;90.17;63423.88;4952429;29;20237;-76
2022/10/07 07:16:35;;;;;;;14.73;6.10;;;;;;;13.79;88.14;63423.41;4969368;29;20232;-76
2022/10/07 07:19:04;;;;;;;12.88;6.07;;;;;;;13.93;86.34;63434.84;4964836;28;20220;-76
2022/10/07 07:21:32;;;;;;;11.32;4.90;;;;;;;14.00;84.44;63447.25;4960160;29;20402;-75
2022/10/07 07:23:59;;;;;;;13.30;6.82;;;;;;;14.08;87.99;63449.91;4964927;28;20227;-75
2022/10/07 07:26:28;;;;;;;7.97;6.10;;;;;;;14.22;86.89;63464.97;4967931;29;20201;-75
2022/10/07 07:28:58;;;;;;;11.18;6.38;;;;;;;14.39;85.53;63485.19;4968982;29;20464;-77
2022/10/07 07:31:26;;;;;;;12.82;6.63;;;;;;;14.58;85.21;63502.34;4966253;29;20200;-76
2022/10/07 07:33:53;;;;;;;8.60;4.90;;;;;;;14.61;81.90;63504.97;4965353;29;20280;-76
2022/10/07 07:36:22;;;;;;;6.13;4.60;;;;;;;14.84;80.29;63528.88;4966178;29;20240;-75
2022/10/07 07:38:53;;;;;;;5.25;3.45;;;;;;;15.08;73.99;63551.75;4960178;29;20288;-76
2022/10/07 07:41:21;;;;;;;5.30;3.00;;;;;;;15.19;66.92;63565.22;4966557;28;20228;-75
2022/10/07 07:43:51;;;;;;;2.42;2.22;;;;;;;15.40;64.54;63589.09;4976306;28;20470;-75
2022/10/07 07:46:19;;;;;;;2.08;1.50;;;;;;;15.48;59.92;63595.38;4967243;29;20490;-75
2022/10/07 07:48:48;;;;;;;1.75;1.63;;;;;;;15.72;58.40;63625.47;4954784;28;20265;-76
2022/10/07 07:51:16;;;;;;;2.10;1.70;;;;;;;15.76;57.06;63623.97;4962451;29;20207;-76
2022/10/07 07:53:43;;;;;;;2.03;1.92;;;;;;;15.88;57.93;63639.00;4966251;29;20423;-76
2022/10/07 07:56:11;;;;;;;2.10;1.90;;;;;;;16.02;57.46;63653.56;4968395;29;20208;-76
2022/10/07 07:58:39;;;;;;;1.45;1.42;;;;;;;16.13;55.72;63668.09;4965785;29;20232;-77
2022/10/07 08:01:10;;;;;;;1.95;1.85;;;;;;;16.32;56.80;63681.69;4956526;29;20212;-76
2022/10/07 08:03:37;;;;;;;5.15;2.78;;;;;;;16.44;55.35;63697.25;4967262;28;20227;-76
2022/10/07 08:06:05;;;;;;;1.55;1.45;;;;;;;16.56;53.25;63707.19;4966091;29;20200;-76
2022/10/07 08:08:33;;;;;;;3.30;1.70;;;;;;;16.70;53.67;63723.81;4964767;28;20571;-76
2022/10/07 08:11:07;;;;;;;2.38;1.98;;;;;;;16.82;53.02;63736.28;4966515;29;20219;-75
2022/10/07 08:13:34;;;;;;;1.30;1.30;;;;;;;16.80;53.03;63734.75;4965593;29;20227;-75
2022/10/07 08:16:03;;;;;;;3.85;1.58;;;;;;;16.74;52.58;63725.91;4956315;29;20205;-75
2022/10/07 08:18:32;;;;;;;2.38;1.75;;;;;;;16.89;52.63;63741.53;4949274;29;20243;-75
2022/10/07 08:21:00;;;;;;;4.82;1.80;;;;;;;17.03;52.66;63758.66;4959135;28;20552;-75
2022/10/07 08:23:28;;;;;;;1.90;1.77;;;;;;;17.06;52.13;63764.38;4948243;29;20221;-76
2022/10/07 08:25:55;;;;;;;2.03;1.88;;;;;;;17.17;51.27;63775.31;4956277;29;20200;-77
2022/10/07 08:28:23;;;;;;;2.13;1.65;;;;;;;17.31;51.10;63792.44;4965317;28;20235;-75
2022/10/07 08:30:50;;;;;;;4.97;2.25;;;;;;;17.31;51.93;63782.66;4951107;29;20430;-75
2022/10/07 08:33:18;;;;;;;3.38;2.72;;;;;;;17.42;52.76;63798.75;4951041;29;20252;-76
2022/10/07 08:35:51;;;;;;;3.90;2.33;;;;;;;17.55;53.36;63811.78;4964299;29;20231;-75
2022/10/07 08:38:17;;;;;;;2.83;2.00;;;;;;;17.62;51.17;63816.50;4964384;28;20506;-76
2022/10/07 08:40:49;;;;;;;3.83;2.15;;;;;;;17.63;51.24;63817.53;4968261;29;20218;-75
2022/10/07 08:43:16;;;;;;;1.83;1.73;;;;;;;17.73;51.09;63831.03;4969050;29;20228;-76
2022/10/07 08:45:44;;;;;;;2.10;1.98;;;;;;;17.66;52.52;63823.75;4965882;29;20267;-76
2022/10/07 08:48:17;;;;;;;2.08;1.98;;;;;;;17.60;51.86;63814.91;4967476;29;20228;-75
2022/10/07 08:50:57;;;;;;;2.58;2.38;;;;;;;17.67;50.38;63826.84;4970638;28;20201;-75
2022/10/07 08:53:29;;;;;;;2.65;2.20;;;;;;;17.79;51.23;63839.88;4960447;28;20263;-74
2022/10/07 08:56:07;;;;;;;2.20;2.03;;;;;;;17.96;50.25;63854.47;4969124;29;20249;-75
2022/10/07 08:58:54;;;;;;;2.13;2.03;;;;;;;18.06;50.40;63868.00;4968396;28;20463;-75
2022/10/07 09:01:34;;;;;;;5.65;2.17;;;;;;;18.21;50.67;63878.47;4963341;29;20547;-75
2022/10/07 09:04:11;;;;;;;3.85;2.05;;;;;;;18.30;49.44;63890.44;4970191;28;20223;-75
2022/10/07 09:06:42;;;;;;;2.53;2.08;;;;;;;18.18;50.43;63877.41;4970232;29;20194;-76
2022/10/07 09:09:14;;;;;;;3.13;2.28;;;;;;;18.19;49.47;63881.00;4967763;28;20214;-75
2022/10/07 09:11:45;;;;;;;4.72;2.63;;;;;;;18.34;48.85;63894.06;4949495;29;20189;-75
2022/10/07 09:14:23;;;;;;;1.90;1.80;;;;;;;18.37;47.89;63899.78;4955920;29;20259;-76
2022/10/07 09:16:52;;;;;;;2.60;2.00;;;;;;;18.33;48.05;63890.44;4967320;28;20251;-77
2022/10/07 09:19:27;;;;;;;2.60;2.30;;;;;;;18.44;47.99;63907.09;4977425;28;20204;-74
2022/10/07 09:22:02;;;;;;;2.40;2.30;;;;;;;18.26;47.85;63883.16;4990278;28;20187;-75
2022/10/07 09:24:31;;;;;;;2.80;2.10;;;;;;;18.27;47.22;63881.63;4966765;28;20251;-75
2022/10/07 09:27:01;;;;;;;2.95;2.25;;;;;;;18.25;48.56;63890.38;4965468;29;20258;-76
2022/10/07 09:29:30;;;;;;;2.70;2.50;;;;;;;18.39;48.84;63894.66;4967508;29;20310;-76
2022/10/07 09:31:57;;;;;;;1.88;1.77;;;;;;;18.41;47.93;63903.97;4965414;28;20365;-75
2022/10/07 09:34:26;;;;;;;1.92;1.83;;;;;;;18.51;47.63;63913.84;4954810;29;20584;-75
2022/10/07 09:37:13;;;;;;;2.00;1.90;;;;;;;18.65;47.83;63926.41;4969651;28;20200;-76
2022/10/07 09:39:40;;;;;;;3.40;2.28;;;;;;;18.77;46.81;63938.91;4964270;29;20204;-75
2022/10/07 09:42:10;;;;;;;2.25;2.15;;;;;;;18.92;46.61;63951.44;4957173;29;20236;-76
2022/10/07 09:44:38;;;;;;;2.58;2.05;;;;;;;18.94;45.19;63956.09;4954713;29;20203;-76
2022/10/07 09:47:19;;;;;;;3.72;2.15;;;;;;;18.91;46.23;63953.50;4966404;28;20422;-75
2022/10/07 09:49:51;;;;;;;1.95;1.85;;;;;;;18.67;44.32;63925.38;4965619;29;20255;-76
2022/10/07 09:52:22;;;;;;;2.08;1.98;;;;;;;18.46;45.89;63909.19;4964807;28;20382;-76
2022/10/07 09:54:51;;;;;;;1.75;1.65;;;;;;;18.18;46.44;63880.50;4967990;29;20251;-76
2022/10/07 09:57:31;;;;;;;2.75;1.80;;;;;;;18.12;46.00;63869.09;4969240;28;20258;-76
2022/10/07 10:00:23;;;;;;;3.95;2.00;;;;;;;18.21;45.95;63883.09;4965224;29;20361;-76
2022/10/07 10:02:53;;;;;;;1.90;1.80;;;;;;;18.23;46.52;63885.19;4965811;28;20252;-77
2022/10/07 10:05:23;;;;;;;2.42;1.85;;;;;;;18.41;47.37;63899.31;4965248;29;20204;-77
2022/10/07 10:08:01;;;;;;;2.00;1.90;;;;;;;18.66;46.42;63927.44;4967297;28;20231;-75
2022/10/07 10:10:30;;;;;;;2.45;2.25;;;;;;;18.80;46.13;63944.06;4965561;29;20227;-75
2022/10/07 10:12:59;;;;;;;1.80;1.70;;;;;;;18.86;44.31;63947.75;4968205;28;20243;-76
2022/10/07 10:15:29;;;;;;;1.98;1.83;;;;;;;18.98;45.02;63957.69;4965299;29;20228;-76
2022/10/07 10:17:57;;;;;;;4.68;2.28;;;;;;;19.04;44.67;63963.94;4963661;28;20243;-76
2022/10/07 10:20:38;;;;;;;2.17;2.05;;;;;;;19.24;44.42;63990.47;4947659;29;20208;-75
2022/10/07 10:23:26;;;;;;;2.35;2.13;;;;;;;18.96;42.26;63955.59;4963788;28;20627;-76
2022/10/07 10:28:55;;;;;;;3.00;2.80;;;;;;;19.25;43.20;63988.94;4966344;28;20233;-76
2022/10/07 10:31:31;;;;;;;2.40;2.20;;;;;;;19.39;43.80;64000.97;4957158;29;20557;-77
2022/10/07 10:34:09;;;;;;;2.17;2.05;;;;;;;19.48;43.19;64009.84;4958441;29;20231;-74
2022/10/07 10:36:42;;;;;;;3.53;2.03;;;;;;;19.54;43.27;64021.78;4965460;29;20445;-77
2022/10/07 10:39:21;;;;;;;4.20;2.38;;;;;;;19.31;43.38;63997.28;4964821;29;20271;-76
2022/10/07 10:41:55;;;;;;;5.32;2.30;;;;;;;19.24;44.48;63985.31;4956568;29;20520;-75
2022/10/07 10:44:36;;;;;;;3.30;2.75;;;;;;;19.05;44.74;63965.00;4958319;29;20218;-77
2022/10/07 10:47:13;;;;;;;3.25;2.97;;;;;;;18.77;44.85;63940.97;4958060;29;20225;-77
2022/10/07 10:49:51;;;;;;;4.07;2.80;;;;;;;18.71;45.63;63930.06;4956953;28;20224;-76
2022/10/07 10:52:34;;;;;;;4.95;2.85;;;;;;;18.62;45.41;63922.75;4976906;28;20220;-76
2022/10/07 10:55:18;;;;;;;6.53;3.13;;;;;;;18.47;44.68;63907.63;4965691;28;20237;-75
2022/10/07 10:58:00;;;;;;;5.80;2.78;;;;;;;18.53;44.23;63919.06;4962319;29;20216;-76
2022/10/07 11:00:34;;;;;;;3.08;2.65;;;;;;;18.49;44.03;63909.72;4963572;29;20196;-75
2022/10/07 11:03:16;;;;;;;2.58;2.40;;;;;;;18.48;43.73;63908.16;4968277;28;20223;-76
2022/10/07 11:05:44;;;;;;;2.58;2.03;;;;;;;18.51;43.35;63908.69;4965258;29;20436;-75
2022/10/07 11:08:16;;;;;;;2.38;2.15;;;;;;;18.38;43.11;63900.81;4963421;28;20235;-77
2022/10/07 11:10:52;;;;;;;2.35;2.25;;;;;;;18.64;43.14;63924.84;4961331;29;20276;-76
2022/10/07 11:13:27;;;;;;;2.00;1.90;;;;;;;18.82;43.43;63943.59;4965438;28;20227;-78
2022/10/07 11:16:00;;;;;;;4.95;1.85;;;;;;;18.87;42.49;63951.91;4950022;29;20247;-78
2022/10/07 11:18:34;;;;;;;3.30;1.85;;;;;;;18.55;41.64;63915.97;4965423;28;20404;-75
2022/10/07 11:21:06;;;;;;;2.10;2.00;;;;;;;18.51;42.28;63909.22;4956829;29;20289;-76
2022/10/07 11:23:41;;;;;;;5.13;2.20;;;;;;;18.51;42.46;63908.69;4977370;28;20225;-75
2022/10/07 11:26:17;;;;;;;2.33;1.95;;;;;;;18.56;43.44;63914.44;4958269;29;20208;-77
2022/10/07 11:28:46;;;;;;;2.58;2.20;;;;;;;18.35;43.85;63892.53;4947206;29;20228;-77
2022/10/07 11:31:21;;;;;;;2.17;1.85;;;;;;;18.46;42.85;63906.59;4957693;29;20387;-76
2022/10/07 11:33:54;;;;;;;2.85;2.08;;;;;;;18.39;43.55;63899.28;4962665;29;20235;-76
2022/10/07 11:36:26;;;;;;;2.55;2.40;;;;;;;18.54;43.57;63914.94;4962486;29;20255;-76
2022/10/07 11:38:54;;;;;;;4.90;2.10;;;;;;;18.36;44.11;63893.59;4966941;28;20230;-76
2022/10/07 11:41:28;;;;;;;2.30;2.20;;;;;;;18.28;44.64;63885.75;4965443;29;20219;-75
2022/10/07 11:43:57;;;;;;;5.25;2.15;;;;;;;18.27;43.66;63884.19;4953153;29;20231;-75
2022/10/07 11:46:29;;;;;;;3.75;2.63;;;;;;;18.48;43.07;63910.72;4960173;29;20227;-76
2022/10/07 11:49:01;;;;;;;3.00;2.25;;;;;;;18.73;42.96;63939.88;4964529;29;20256;-75
2022/10/07 11:51:33;;;;;;;5.13;2.30;;;;;;;18.86;43.26;63947.75;4961742;29;20263;-78
2022/10/07 11:54:03;;;;;;;2.63;2.45;;;;;;;18.68;43.84;63926.41;4961617;28;20220;-76
2022/10/07 11:56:37;;;;;;;2.65;2.40;;;;;;;18.66;43.26;63924.84;4962950;29;20229;-77
2022/10/07 11:59:06;;;;;;;2.45;2.25;;;;;;;18.78;42.99;63939.41;4968468;28;20210;-76